Time;durP1;ratioP1;P1;durP2;ratioP2;P2;SDS_P1;SDS_P2;PMS_P1;PMS_P2;Temp;Humidity;BMP_temperature;BMP_pressure;BME280_temperature;BME280_humidity;BME280_pressure;Samples;Min_cycle;Max_cycle;Signal;HPM_P1;HPM_P2
2021/05/19 09:02:30;;;;;;;2.88;2.17;;;;;;;;;;5079511;27;1180209;-65
2021/05/19 09:04:59;;;;;;;5.43;2.88;;;;;;;;;;5102952;28;20750;-63
2021/05/19 09:07:25;;;;;;;3.20;2.30;;;;;;;;;;5097850;28;20019;-64
2021/05/19 09:09:50;;;;;;;3.45;2.55;;;;;;;;;;5093589;28;20020;-64
2021/05/19 09:12:16;;;;;;;3.88;2.33;;;;;;;;;;5100337;28;20023;-63
2021/05/19 09:14:43;;;;;;;6.40;2.80;;;;;;;;;;5093021;28;20024;-64
2021/05/19 09:17:27;;;;;;;4.85;2.33;;;;;;;;;;5088107;28;20026;-65
2021/05/19 09:20:05;;;;;;;5.75;1.98;;;;;;;;;;5088506;28;20028;-64
2021/05/19 09:22:33;;;;;;;5.18;1.90;;;;;;;;;;5083585;28;20119;-66
2021/05/19 09:24:58;;;;;;;5.28;2.45;;;;;;;;;;5088139;28;20028;-67
2021/05/19 09:27:24;;;;;;;6.38;2.40;;;;;;;;;;5088351;28;20030;-64
2021/05/19 09:29:51;;;;;;;6.57;2.05;;;;;;;;;;5084541;28;20055;-65
2021/05/19 09:32:17;;;;;;;3.72;2.38;;;;;;;;;;5085632;28;20012;-65
2021/05/19 09:34:44;;;;;;;4.72;2.30;;;;;;;;;;5082659;28;20012;-64
2021/05/19 09:37:24;;;;;;;4.18;1.92;;;;;;;;;;5086778;28;20062;-67
2021/05/19 09:39:51;;;;;;;3.28;2.30;;;;;;;;;;5087781;28;20046;-66
2021/05/19 09:42:18;;;;;;;6.03;2.40;;;;;;;;;;5065137;28;20044;-67
2021/05/19 09:44:46;;;;;;;6.10;2.53;;;;;;;;;;5081930;28;20469;-68
2021/05/19 09:47:12;;;;;;;3.92;2.30;;;;;;;;;;5087948;28;20020;-68
2021/05/19 09:49:37;;;;;;;3.40;2.10;;;;;;;;;;5087450;28;20099;-68
2021/05/19 09:52:16;;;;;;;6.82;2.33;;;;;;;;;;5086677;28;20016;-68
2021/05/19 09:54:43;;;;;;;3.58;2.60;;;;;;;;;;5087590;28;20021;-68
2021/05/19 09:57:10;;;;;;;6.95;2.50;;;;;;;;;;5086816;28;20469;-68
2021/05/19 09:59:36;;;;;;;4.32;1.92;;;;;;;;;;5052629;28;20552;-68
2021/05/19 10:02:02;;;;;;;3.97;1.85;;;;;;;;;;5086895;28;20147;-67
2021/05/19 10:04:37;;;;;;;3.90;2.13;;;;;;;;;;5087372;28;20024;-67
2021/05/19 10:07:03;;;;;;;6.22;2.63;;;;;;;;;;5087111;28;20020;-67
2021/05/19 10:09:29;;;;;;;2.95;2.17;;;;;;;;;;5065140;28;20471;-67
2021/05/19 10:11:55;;;;;;;6.25;2.53;;;;;;;;;;5072883;28;20013;-67
2021/05/19 10:14:24;;;;;;;5.72;2.55;;;;;;;;;;5054985;28;20009;-68
2021/05/19 10:16:53;;;;;;;4.10;2.35;;;;;;;;;;5073533;28;20546;-67
2021/05/19 10:19:24;;;;;;;2.97;2.08;;;;;;;;;;5070058;28;20033;-68
2021/05/19 10:21:49;;;;;;;3.72;1.90;;;;;;;;;;5062734;28;20369;-66
2021/05/19 10:24:15;;;;;;;5.20;2.17;;;;;;;;;;5057007;28;20021;-65
2021/05/19 10:26:59;;;;;;;5.25;2.42;;;;;;;;;;5062410;28;20024;-66
2021/05/19 10:29:43;;;;;;;3.53;2.35;;;;;;;;;;5065981;28;20067;-65
2021/05/19 10:32:23;;;;;;;4.00;2.15;;;;;;;;;;5067865;28;20018;-66
2021/05/19 10:34:49;;;;;;;3.78;2.80;;;;;;;;;;5067293;28;20024;-66
2021/05/19 10:37:35;;;;;;;9.32;2.67;;;;;;;;;;5065844;28;20052;-66
2021/05/19 10:40:19;;;;;;;4.38;2.50;;;;;;;;;;5068635;28;20032;-67
2021/05/19 10:42:52;;;;;;;5.20;2.13;;;;;;;;;;5064938;28;20067;-65
2021/05/19 10:45:18;;;;;;;5.55;1.80;;;;;;;;;;5066125;28;20036;-66
2021/05/19 10:47:45;;;;;;;9.30;3.28;;;;;;;;;;5062172;28;20484;-66
2021/05/19 10:50:29;;;;;;;7.28;2.00;;;;;;;;;;5064445;28;20477;-65
2021/05/19 10:57:17;;;;;;;7.10;2.25;;;;;;;;;;5059844;28;20024;-67
2021/05/19 10:58:52;;;;;;;4.78;2.53;;;;;;;;;;5058657;28;20167;-65
2021/05/19 11:01:38;;;;;;;5.20;1.83;;;;;;;;;;5065745;28;20063;-64
2021/05/19 11:04:22;;;;;;;4.75;1.80;;;;;;;;;;5046382;28;20049;-66
2021/05/19 11:07:02;;;;;;;3.83;1.60;;;;;;;;;;5064986;28;20440;-66
2021/05/19 11:09:28;;;;;;;;;;;;;;;;;;5062850;28;20024;-66
2021/05/19 11:12:13;;;;;;;3.25;1.25;;;;;;;;;;5066161;28;20280;-66
2021/05/19 11:14:46;;;;;;;3.08;1.50;;;;;;;;;;5065715;28;20027;-67
2021/05/19 11:17:21;;;;;;;3.33;1.15;;;;;;;;;;5064944;28;20021;-66
2021/05/19 11:19:46;;;;;;;1.48;1.00;;;;;;;;;;5067830;28;20382;-66
2021/05/19 11:22:13;;;;;;;4.55;1.40;;;;;;;;;;5065016;28;20442;-67
2021/05/19 11:24:57;;;;;;;6.47;1.42;;;;;;;;;;5067612;28;20109;-67
2021/05/19 11:27:25;;;;;;;4.57;1.23;;;;;;;;;;5062757;28;20024;-66
2021/05/19 11:29:51;;;;;;;2.85;0.85;;;;;;;;;;5043200;28;20132;-67
2021/05/19 11:32:24;;;;;;;5.55;1.70;;;;;;;;;;5070886;28;20107;-67
2021/05/19 11:34:50;;;;;;;3.08;1.90;;;;;;;;;;5054010;28;20099;-67
2021/05/19 11:37:16;;;;;;;4.80;1.33;;;;;;;;;;5071579;28;20512;-68
2021/05/19 11:39:56;;;;;;;25.83;2.03;;;;;;;;;;5072166;28;20044;-67
2021/05/19 11:42:24;;;;;;;5.38;1.85;;;;;;;;;;5070754;28;20144;-66
2021/05/19 11:44:54;;;;;;;4.38;2.58;;;;;;;;;;5067939;28;20444;-68
2021/05/19 11:47:21;;;;;;;4.05;2.30;;;;;;;;;;5055694;28;20013;-67
2021/05/19 11:49:46;;;;;;;4.85;2.13;;;;;;;;;;5066366;28;20021;-68
2021/05/19 11:52:12;;;;;;;2.72;1.75;;;;;;;;;;5059898;28;20017;-68
2021/05/19 11:54:42;;;;;;;8.73;2.20;;;;;;;;;;5061930;28;20051;-69
2021/05/19 11:57:10;;;;;;;3.63;2.08;;;;;;;;;;5068794;28;20025;-68
2021/05/19 11:59:38;;;;;;;6.07;1.90;;;;;;;;;;5062449;28;20100;-69
2021/05/19 12:02:06;;;;;;;6.15;3.75;;;;;;;;;;5029302;28;20532;-66
2021/05/19 12:04:33;;;;;;;6.35;2.03;;;;;;;;;;5051908;28;20031;-66
2021/05/19 12:07:03;;;;;;;6.18;2.42;;;;;;;;;;5070907;28;20100;-66
2021/05/19 12:09:29;;;;;;;4.63;2.28;;;;;;;;;;5071279;28;20526;-66
2021/05/19 12:11:56;;;;;;;6.82;2.13;;;;;;;;;;5071183;28;20028;-65
2021/05/19 12:14:22;;;;;;;3.55;2.38;;;;;;;;;;5068597;28;20475;-67
2021/05/19 12:16:47;;;;;;;13.20;2.72;;;;;;;;;;5065223;28;20024;-67
2021/05/19 12:19:14;;;;;;;3.90;2.30;;;;;;;;;;5043991;28;20016;-66
2021/05/19 12:21:45;;;;;;;5.63;2.10;;;;;;;;;;5069604;28;20412;-65
2021/05/19 12:24:11;;;;;;;5.82;3.08;;;;;;;;;;5067548;28;20024;-66
2021/05/19 12:26:38;;;;;;;4.82;2.75;;;;;;;;;;5070770;28;20388;-66
2021/05/19 12:29:22;;;;;;;4.05;3.05;;;;;;;;;;5052491;28;20384;-67
2021/05/19 12:31:48;;;;;;;3.22;2.85;;;;;;;;;;5070700;28;20024;-69
2021/05/19 12:34:15;;;;;;;4.20;2.75;;;;;;;;;;5071421;28;20009;-67
2021/05/19 12:36:45;;;;;;;4.30;3.60;;;;;;;;;;5070296;28;20023;-69
2021/05/19 12:39:16;;;;;;;4.53;3.20;;;;;;;;;;5070162;28;20055;-69
2021/05/19 12:41:45;;;;;;;5.90;3.70;;;;;;;;;;5065208;28;20033;-67
2021/05/19 12:44:16;;;;;;;8.48;3.17;;;;;;;;;;5068111;28;20091;-67
2021/05/19 12:47:01;;;;;;;3.88;2.90;;;;;;;;;;5069274;28;20116;-65
2021/05/19 12:49:28;;;;;;;5.72;3.15;;;;;;;;;;5065906;28;20444;-67
2021/05/19 12:51:58;;;;;;;7.70;3.42;;;;;;;;;;5070106;28;20028;-67
2021/05/19 12:54:28;;;;;;;8.95;3.45;;;;;;;;;;5071018;28;20379;-67
2021/05/19 12:57:01;;;;;;;5.85;3.28;;;;;;;;;;5070266;28;20024;-68
2021/05/19 12:59:27;;;;;;;8.43;3.92;;;;;;;;;;5069692;28;20070;-67
2021/05/19 13:01:52;;;;;;;16.77;4.70;;;;;;;;;;5070101;28;20040;-66
2021/05/19 13:04:21;;;;;;;12.02;4.70;;;;;;;;;;5067081;28;20029;-67
2021/05/19 13:06:53;;;;;;;16.13;3.95;;;;;;;;;;5068599;28;20066;-66
2021/05/19 13:09:23;;;;;;;14.93;4.55;;;;;;;;;;5070187;28;20429;-68
2021/05/19 13:14:29;;;;;;;6.93;3.33;;;;;;;;;;5063401;28;20039;-69
2021/05/19 13:16:55;;;;;;;8.60;3.90;;;;;;;;;;5067919;28;20487;-69
2021/05/19 13:19:22;;;;;;;24.90;4.75;;;;;;;;;;5069688;28;20027;-68
2021/05/19 13:21:51;;;;;;;9.90;3.58;;;;;;;;;;5069577;28;20407;-67
2021/05/19 13:24:18;;;;;;;9.52;3.25;;;;;;;;;;5070291;28;20597;-68
2021/05/19 13:26:47;;;;;;;14.43;3.85;;;;;;;;;;5070146;28;20074;-68
2021/05/19 13:29:13;;;;;;;9.68;3.85;;;;;;;;;;5069984;28;20036;-69
2021/05/19 13:31:45;;;;;;;7.43;3.92;;;;;;;;;;5070493;28;20020;-67
2021/05/19 13:36:51;;;;;;;7.93;3.40;;;;;;;;;;5070300;28;20032;-68
2021/05/19 13:39:17;;;;;;;7.97;3.58;;;;;;;;;;5070195;28;20120;-68
2021/05/19 13:41:44;;;;;;;6.07;3.53;;;;;;;;;;5051797;28;20064;-68
2021/05/19 13:44:11;;;;;;;6.75;3.28;;;;;;;;;;5062867;28;20376;-66
2021/05/19 13:46:41;;;;;;;7.75;3.08;;;;;;;;;;5070099;28;20389;-67
2021/05/19 13:49:21;;;;;;;5.15;3.60;;;;;;;;;;5054657;28;20023;-67
2021/05/19 13:51:49;;;;;;;6.35;3.40;;;;;;;;;;5074080;28;20020;-67
2021/05/19 13:54:15;;;;;;;8.60;3.47;;;;;;;;;;5069640;28;20013;-67
2021/05/19 13:56:40;;;;;;;9.75;3.92;;;;;;;;;;5064721;28;20024;-66
2021/05/19 13:59:06;;;;;;;7.28;3.42;;;;;;;;;;5073497;28;20058;-65
2021/05/19 14:01:31;;;;;;;5.05;2.80;;;;;;;;;;5073647;28;20052;-65
2021/05/19 14:03:58;;;;;;;7.53;3.60;;;;;;;;;;5073712;28;20025;-64
2021/05/19 14:06:24;;;;;;;6.80;2.75;;;;;;;;;;5073836;28;20024;-65
2021/05/19 14:08:49;;;;;;;4.53;2.55;;;;;;;;;;5072775;28;20028;-65
2021/05/19 14:11:17;;;;;;;8.63;2.83;;;;;;;;;;5071499;28;20392;-64
2021/05/19 14:13:51;;;;;;;4.43;3.00;;;;;;;;;;5073006;28;20028;-65
2021/05/19 14:16:34;;;;;;;6.43;3.30;;;;;;;;;;5072419;28;20016;-67
2021/05/19 14:27:18;;;;;;;5.75;3.45;;;;;;;;;;5073394;28;20107;-69
2021/05/19 14:29:44;;;;;;;5.70;3.75;;;;;;;;;;5072748;28;20021;-68
2021/05/19 14:32:09;;;;;;;8.48;3.67;;;;;;;;;;5072868;28;20016;-66
2021/05/19 14:34:35;;;;;;;7.43;4.07;;;;;;;;;;5073561;28;20529;-66
2021/05/19 14:37:27;;;;;;;10.95;3.67;;;;;;;;;;5071075;28;20496;-67
